Time;durP1;ratioP1;P1;durP2;ratioP2;P2;SDS_P1;SDS_P2;PMS_P1;PMS_P2;Temp;Humidity;BMP_temperature;BMP_pressure;BME280_temperature;BME280_humidity;BME280_pressure;Samples;Min_cycle;Max_cycle;Signal;HPM_P1;HPM_P2
2022/03/20 00:00:47;;;;;;;7.60;3.20;;;10.00;48.20;;;;;;5046549;28;20029;-65
2022/03/20 00:03:14;;;;;;;9.10;4.18;;;10.00;48.30;;;;;;5044266;28;20025;-65
2022/03/20 00:05:41;;;;;;;10.07;3.70;;;10.00;48.30;;;;;;5048357;28;20033;-65
2022/03/20 00:08:11;;;;;;;9.18;3.83;;;9.90;48.30;;;;;;5036979;28;20381;-65
2022/03/20 00:10:42;;;;;;;8.45;3.95;;;9.90;48.40;;;;;;5042428;28;20021;-65
2022/03/20 00:13:09;;;;;;;10.43;4.55;;;9.90;48.40;;;;;;5043263;28;20036;-65
2022/03/20 00:15:40;;;;;;;8.57;4.13;;;9.90;48.40;;;;;;5036958;28;20036;-65
2022/03/20 00:18:06;;;;;;;10.60;4.47;;;9.90;48.40;;;;;;5034026;28;20033;-65
2022/03/20 00:20:38;;;;;;;8.48;4.40;;;9.90;48.40;;;;;;5052157;28;20037;-65
2022/03/20 00:23:07;;;;;;;8.03;4.10;;;9.80;48.50;;;;;;5040596;28;20029;-65
2022/03/20 00:25:34;;;;;;;11.38;4.78;;;9.80;48.50;;;;;;5040729;28;20292;-65
2022/03/20 00:28:00;;;;;;;9.45;4.20;;;9.70;48.60;;;;;;5052199;28;20465;-66
2022/03/20 00:30:26;;;;;;;9.32;4.55;;;9.70;48.70;;;;;;5051298;28;20069;-65
2022/03/20 00:32:51;;;;;;;9.63;4.65;;;9.70;48.70;;;;;;5045507;28;20029;-65
2022/03/20 00:35:18;;;;;;;11.75;4.82;;;9.70;48.70;;;;;;5017898;28;20040;-65
2022/03/20 00:37:43;;;;;;;11.82;5.68;;;9.70;48.70;;;;;;5053878;28;20043;-65
2022/03/20 00:40:09;;;;;;;12.65;5.40;;;9.70;48.70;;;;;;5031129;28;20132;-65
2022/03/20 00:42:34;;;;;;;11.75;6.25;;;9.70;48.80;;;;;;5048828;28;20040;-65
2022/03/20 00:45:00;;;;;;;10.27;5.88;;;9.60;48.80;;;;;;5046407;28;20098;-65
2022/03/20 00:47:26;;;;;;;12.73;6.32;;;9.60;48.80;;;;;;5023550;28;20025;-65
2022/03/20 00:49:51;;;;;;;11.23;5.68;;;9.60;48.90;;;;;;5049567;28;20052;-65
2022/03/20 00:52:17;;;;;;;12.98;6.75;;;9.60;49.00;;;;;;5044600;28;20041;-66
2022/03/20 00:54:42;;;;;;;11.20;5.95;;;9.60;49.10;;;;;;5054934;28;20373;-65
2022/03/20 00:57:08;;;;;;;12.65;6.53;;;9.50;49.00;;;;;;5055916;28;20061;-65
2022/03/20 00:59:34;;;;;;;11.05;6.28;;;9.60;49.10;;;;;;5038488;28;20381;-65
2022/03/20 01:01:59;;;;;;;11.90;6.68;;;9.50;49.10;;;;;;5045516;28;20037;-65
2022/03/20 01:04:26;;;;;;;15.93;7.30;;;9.50;49.20;;;;;;5048809;28;20401;-65
2022/03/20 01:06:55;;;;;;;12.73;6.05;;;9.50;49.20;;;;;;5047887;28;20036;-66
2022/03/20 01:09:22;;;;;;;13.95;7.68;;;9.50;49.20;;;;;;5054484;28;20280;-65
2022/03/20 01:11:48;;;;;;;12.60;7.32;;;9.50;49.30;;;;;;5049728;28;20044;-65
2022/03/20 01:14:13;;;;;;;13.32;7.95;;;9.40;49.30;;;;;;5048445;28;20029;-66
2022/03/20 01:16:39;;;;;;;11.73;6.63;;;9.40;49.50;;;;;;5047221;28;20108;-65
2022/03/20 01:19:05;;;;;;;13.20;7.40;;;9.40;49.50;;;;;;5035536;28;20034;-66
2022/03/20 01:21:31;;;;;;;11.80;7.85;;;9.30;49.60;;;;;;5037969;28;20068;-65
2022/03/20 01:23:57;;;;;;;13.52;7.40;;;9.30;49.60;;;;;;5040473;28;20065;-65
2022/03/20 01:26:23;;;;;;;14.40;7.70;;;9.30;50.30;;;;;;5037071;28;20037;-66
2022/03/20 01:28:48;;;;;;;11.55;7.60;;;9.20;49.70;;;;;;5054981;28;20075;-66
2022/03/20 01:31:14;;;;;;;13.95;7.75;;;9.20;49.90;;;;;;5054442;28;20044;-65
2022/03/20 01:33:41;;;;;;;12.45;7.05;;;9.10;49.90;;;;;;5047144;28;20025;-65
2022/03/20 01:36:07;;;;;;;12.98;7.13;;;9.10;50.00;;;;;;5053234;28;20451;-65
2022/03/20 01:38:32;;;;;;;10.82;7.05;;;9.10;50.20;;;;;;5036728;28;20064;-65
2022/03/20 01:41:00;;;;;;;13.45;6.57;;;9.10;50.30;;;;;;5036179;28;20029;-65
2022/03/20 01:43:26;;;;;;;11.93;6.72;;;9.00;50.40;;;;;;5046287;28;20044;-65
2022/03/20 01:45:51;;;;;;;14.13;6.82;;;9.00;50.60;;;;;;5048319;28;20370;-65
2022/03/20 01:48:18;;;;;;;10.20;6.00;;;8.90;50.70;;;;;;5034746;28;20045;-65
2022/03/20 01:50:43;;;;;;;10.45;5.72;;;8.90;50.90;;;;;;5040969;28;20029;-66
2022/03/20 01:53:09;;;;;;;14.30;6.95;;;8.90;51.10;;;;;;5047454;28;20031;-65
2022/03/20 01:55:35;;;;;;;14.95;6.00;;;8.90;51.30;;;;;;5043454;28;20088;-68
2022/03/20 01:58:02;;;;;;;10.82;5.80;;;8.80;51.50;;;;;;5046628;28;20033;-66
2022/03/20 02:00:28;;;;;;;10.82;6.28;;;8.80;51.60;;;;;;5054705;28;20056;-65
2022/03/20 02:02:55;;;;;;;11.35;6.20;;;8.80;52.40;;;;;;5036783;28;20113;-65
2022/03/20 02:05:21;;;;;;;11.73;6.13;;;8.80;52.00;;;;;;5054552;28;20033;-65
2022/03/20 02:07:48;;;;;;;11.70;5.72;;;8.80;52.10;;;;;;5047135;28;20112;-65
2022/03/20 02:10:15;;;;;;;9.77;5.25;;;8.70;52.30;;;;;;5035572;28;20025;-65
2022/03/20 02:12:41;;;;;;;10.35;5.25;;;8.70;52.50;;;;;;5049484;28;20021;-65
2022/03/20 02:15:11;;;;;;;10.85;5.47;;;8.70;52.70;;;;;;5053405;28;20025;-65
2022/03/20 02:17:38;;;;;;;11.43;5.65;;;8.70;52.90;;;;;;5035367;28;20094;-65
2022/03/20 02:20:08;;;;;;;12.38;5.47;;;8.60;53.00;;;;;;5047078;28;20029;-65
2022/03/20 02:22:37;;;;;;;11.18;5.47;;;8.60;53.20;;;;;;5047629;28;20337;-65
2022/03/20 02:25:08;;;;;;;9.90;4.32;;;8.60;53.30;;;;;;5051495;28;20037;-65
2022/03/20 02:27:38;;;;;;;9.60;4.53;;;8.60;53.50;;;;;;5050177;28;20034;-65
2022/03/20 02:30:12;;;;;;;11.65;5.25;;;8.60;53.50;;;;;;5019795;28;20083;-65
2022/03/20 02:32:40;;;;;;;12.35;5.25;;;8.50;53.70;;;;;;5048191;28;20028;-65
2022/03/20 02:35:11;;;;;;;9.10;5.07;;;8.50;53.80;;;;;;5053250;28;20044;-65
2022/03/20 02:37:39;;;;;;;11.05;4.93;;;8.50;54.00;;;;;;5051546;28;20040;-65
2022/03/20 02:40:05;;;;;;;11.68;4.80;;;8.50;54.10;;;;;;5034100;28;20419;-65
2022/03/20 02:42:31;;;;;;;9.40;5.32;;;8.50;54.10;;;;;;5038950;28;20033;-65
2022/03/20 02:45:21;;;;;;;10.60;5.25;;;8.50;54.20;;;;;;5043175;28;20116;-65
2022/03/20 02:47:48;;;;;;;11.65;5.38;;;8.50;54.30;;;;;;5037538;28;20024;-65
2022/03/20 02:50:20;;;;;;;10.25;5.28;;;8.40;54.30;;;;;;5053765;28;20024;-65
2022/03/20 02:52:53;;;;;;;11.20;5.43;;;8.40;54.50;;;;;;5053557;28;20356;-65
2022/03/20 02:55:21;;;;;;;9.52;5.80;;;8.40;54.60;;;;;;5051714;28;20450;-65
2022/03/20 02:57:47;;;;;;;11.90;5.47;;;8.40;54.70;;;;;;5048392;28;20409;-65
2022/03/20 03:00:17;;;;;;;12.73;5.28;;;8.40;54.70;;;;;;5054388;28;20345;-65
2022/03/20 03:02:44;;;;;;;11.30;6.03;;;8.30;54.80;;;;;;5047534;28;20025;-65
2022/03/20 03:05:14;;;;;;;11.27;6.07;;;8.30;54.80;;;;;;5050577;28;20021;-65
2022/03/20 03:13:10;;;;;;;10.52;5.32;;;8.30;55.00;;;;;;5052603;28;20029;-65
2022/03/20 03:15:36;;;;;;;11.90;6.35;;;8.30;55.10;;;;;;5052562;28;20102;-65
2022/03/20 03:18:02;;;;;;;11.40;5.85;;;8.20;55.00;;;;;;5045956;28;20446;-65
2022/03/20 03:20:28;;;;;;;12.13;6.10;;;8.30;55.20;;;;;;5046854;28;20104;-65
2022/03/20 03:22:54;;;;;;;12.40;6.63;;;8.20;55.10;;;;;;5017013;28;20037;-65
2022/03/20 03:25:21;;;;;;;13.95;7.70;;;8.20;55.20;;;;;;5052334;28;20047;-65
2022/03/20 03:27:47;;;;;;;15.55;7.13;;;8.20;55.30;;;;;;5047913;28;20026;-65
2022/03/20 03:30:12;;;;;;;15.90;7.45;;;8.20;55.30;;;;;;5016796;28;20095;-65
2022/03/20 03:32:40;;;;;;;15.07;7.45;;;8.20;55.30;;;;;;5024396;28;20161;-65
2022/03/20 03:37:54;;;;;;;13.68;7.60;;;8.20;55.30;;;;;;5038563;28;20182;-65
2022/03/20 03:40:19;;;;;;;14.23;7.60;;;8.10;55.20;;;;;;5036598;28;20408;-65
2022/03/20 03:42:46;;;;;;;13.90;7.82;;;8.20;55.30;;;;;;5034070;28;20410;-65
2022/03/20 03:45:12;;;;;;;13.40;7.13;;;8.10;55.20;;;;;;5043759;28;20037;-65
2022/03/20 03:47:40;;;;;;;12.80;7.35;;;8.10;55.20;;;;;;5043098;28;20028;-65
2022/03/20 03:50:07;;;;;;;15.05;8.40;;;8.10;55.20;;;;;;5041191;28;20112;-65
2022/03/20 03:52:33;;;;;;;14.98;8.20;;;8.10;55.10;;;;;;5034034;28;20030;-65
2022/03/20 03:54:59;;;;;;;13.77;7.60;;;8.10;55.10;;;;;;5034261;28;20031;-65
2022/03/20 03:57:25;;;;;;;14.75;8.00;;;8.10;55.20;;;;;;5033877;28;20045;-65
2022/03/20 03:59:50;;;;;;;13.05;8.20;;;8.10;55.20;;;;;;5049161;28;20116;-65
2022/03/20 04:02:16;;;;;;;13.52;7.90;;;8.10;55.10;;;;;;5035874;28;20044;-65
2022/03/20 04:04:42;;;;;;;14.93;8.68;;;8.00;55.00;;;;;;5046640;28;20029;-65
2022/03/20 04:07:09;;;;;;;15.65;9.38;;;8.00;55.00;;;;;;5033864;28;20025;-65
2022/03/20 04:09:35;;;;;;;16.02;9.00;;;8.00;55.00;;;;;;5047568;28;20166;-65
2022/03/20 04:12:03;;;;;;;13.90;8.90;;;8.00;55.00;;;;;;5045379;28;20029;-65
2022/03/20 04:14:29;;;;;;;13.77;8.75;;;8.00;55.10;;;;;;5037320;28;20041;-65
2022/03/20 04:16:56;;;;;;;15.07;9.10;;;7.90;55.00;;;;;;5052534;28;20079;-65
2022/03/20 04:19:22;;;;;;;15.50;9.38;;;8.00;55.00;;;;;;5050755;28;20037;-65
2022/03/20 04:21:50;;;;;;;13.85;8.63;;;8.00;54.90;;;;;;5053191;28;20039;-65
2022/03/20 04:24:16;;;;;;;14.40;8.77;;;8.00;54.80;;;;;;5048939;28;20025;-65
2022/03/20 04:26:43;;;;;;;17.27;9.68;;;8.00;54.90;;;;;;5054445;28;20021;-65
2022/03/20 04:29:09;;;;;;;12.65;8.13;;;7.90;54.80;;;;;;5038637;28;20026;-65
2022/03/20 04:31:35;;;;;;;20.70;9.25;;;7.90;54.80;;;;;;5038905;28;20095;-65
2022/03/20 04:34:00;;;;;;;15.05;9.43;;;8.00;54.80;;;;;;5037913;28;20042;-65
2022/03/20 04:36:30;;;;;;;15.77;9.57;;;7.90;54.70;;;;;;5053660;28;20029;-65
2022/03/20 04:39:00;;;;;;;13.25;8.57;;;8.00;54.70;;;;;;5040579;28;20048;-65
2022/03/20 04:41:26;;;;;;;15.05;9.30;;;8.00;54.60;;;;;;5049589;28;20036;-65
2022/03/20 04:43:52;;;;;;;14.50;8.75;;;8.00;54.60;;;;;;5040262;28;20025;-65
2022/03/20 04:46:19;;;;;;;15.95;9.50;;;8.00;54.50;;;;;;5043051;28;20036;-65
2022/03/20 04:59:44;;;;;;;15.57;8.80;;;7.90;54.10;;;;;;5055929;28;20044;-65
2022/03/20 05:02:10;;;;;;;14.23;9.40;;;7.90;54.00;;;;;;5042612;28;20037;-65
2022/03/20 05:04:37;;;;;;;17.00;10.13;;;8.00;54.00;;;;;;5036980;28;20043;-65
2022/03/20 05:07:03;;;;;;;15.02;9.20;;;8.00;53.90;;;;;;5050079;28;20036;-67
2022/03/20 05:14:59;;;;;;;15.25;9.60;;;8.00;53.70;;;;;;5047682;28;20057;-68
2022/03/20 05:17:24;;;;;;;17.30;9.98;;;7.90;53.70;;;;;;5051888;28;20091;-68
2022/03/20 05:19:50;;;;;;;17.88;10.65;;;7.90;53.60;;;;;;5047486;28;20069;-68
2022/03/20 05:22:16;;;;;;;16.95;9.60;;;7.90;53.60;;;;;;5052779;28;20029;-68
2022/03/20 05:24:41;;;;;;;15.88;9.45;;;7.90;53.50;;;;;;5042546;28;20488;-67
2022/03/20 05:27:07;;;;;;;16.30;10.50;;;7.90;53.40;;;;;;5043181;28;20449;-68
2022/03/20 05:29:34;;;;;;;17.83;10.30;;;7.90;53.40;;;;;;5046073;28;20070;-68
2022/03/20 05:32:04;;;;;;;16.83;10.10;;;7.90;53.40;;;;;;5050778;28;20048;-68
2022/03/20 05:34:32;;;;;;;16.17;9.60;;;7.90;53.40;;;;;;5053499;28;20037;-65
2022/03/20 05:37:02;;;;;;;16.38;10.45;;;7.90;53.30;;;;;;5044744;28;20017;-65
2022/03/20 05:39:28;;;;;;;20.95;10.90;;;7.90;53.20;;;;;;5045519;28;20416;-65
2022/03/20 05:41:54;;;;;;;17.02;10.15;;;7.90;53.30;;;;;;5038857;28;20033;-66
2022/03/20 05:44:21;;;;;;;19.05;10.43;;;7.90;53.20;;;;;;5042930;28;20029;-65
2022/03/20 05:46:49;;;;;;;19.52;11.45;;;7.90;53.10;;;;;;5036736;28;20028;-65
2022/03/20 05:49:19;;;;;;;15.50;10.10;;;7.90;53.00;;;;;;5034692;28;20342;-65
2022/03/20 05:51:46;;;;;;;18.80;11.00;;;7.90;53.00;;;;;;5048853;28;20029;-65
2022/03/20 05:54:12;;;;;;;17.25;11.15;;;7.90;52.90;;;;;;5040283;28;20377;-65
2022/03/20 05:59:23;;;;;;;15.88;10.13;;;7.90;52.90;;;;;;5052922;28;20040;-65
2022/03/20 06:01:50;;;;;;;17.88;10.05;;;7.80;52.80;;;;;;5048527;28;20311;-66
2022/03/20 06:04:17;;;;;;;17.75;11.50;;;7.80;52.80;;;;;;5048353;28;20029;-65
2022/03/20 06:06:43;;;;;;;16.05;9.82;;;7.80;52.80;;;;;;5055657;28;20029;-65
2022/03/20 06:09:09;;;;;;;16.15;9.93;;;7.80;52.70;;;;;;5048788;28;20055;-66
2022/03/20 06:11:35;;;;;;;19.02;10.95;;;7.90;52.70;;;;;;5028916;28;20462;-65
2022/03/20 06:14:03;;;;;;;17.13;9.65;;;7.80;52.60;;;;;;5046195;28;20094;-65
2022/03/20 06:16:28;;;;;;;20.45;11.73;;;7.90;52.60;;;;;;5049387;28;20482;-65
2022/03/20 06:18:58;;;;;;;17.05;10.82;;;7.90;52.50;;;;;;5040258;28;20041;-65
2022/03/20 06:21:25;;;;;;;18.35;11.18;;;7.90;52.40;;;;;;5051563;28;20443;-65
2022/03/20 06:23:51;;;;;;;18.23;11.48;;;7.90;52.30;;;;;;5042525;28;20029;-65
2022/03/20 06:26:17;;;;;;;17.48;11.20;;;8.00;52.20;;;;;;5051446;28;20036;-65
2022/03/20 06:28:43;;;;;;;18.23;11.48;;;8.00;52.10;;;;;;5041534;28;20338;-65
2022/03/20 06:31:13;;;;;;;21.23;11.25;;;8.00;52.00;;;;;;5045829;28;20374;-65
2022/03/20 06:33:43;;;;;;;16.60;10.35;;;8.10;52.00;;;;;;5034570;28;20083;-65
2022/03/20 06:36:10;;;;;;;19.23;11.02;;;8.10;51.90;;;;;;5035136;28;20021;-65
2022/03/20 06:38:36;;;;;;;18.83;12.40;;;8.10;51.80;;;;;;5050955;28;20017;-65
2022/03/20 06:41:03;;;;;;;18.73;10.55;;;8.10;51.60;;;;;;5036812;28;20033;-65
2022/03/20 06:43:29;;;;;;;18.27;11.27;;;8.10;51.50;;;;;;5053406;28;20035;-65
2022/03/20 06:45:56;;;;;;;22.67;11.48;;;8.20;51.30;;;;;;5054716;28;20036;-65
2022/03/20 06:48:24;;;;;;;17.23;10.13;;;8.20;51.20;;;;;;5052588;28;20028;-65
2022/03/20 06:50:50;;;;;;;20.17;11.63;;;8.30;51.00;;;;;;5053525;28;20100;-65
2022/03/20 06:53:18;;;;;;;16.63;10.73;;;8.40;50.80;;;;;;5039936;28;20109;-65
2022/03/20 06:55:44;;;;;;;20.50;13.02;;;8.50;50.50;;;;;;5027177;28;20086;-65
2022/03/20 06:58:10;;;;;;;17.05;11.40;;;8.60;50.20;;;;;;5046689;28;20107;-67
2022/03/20 07:00:37;;;;;;;18.77;11.75;;;8.70;50.10;;;;;;5050466;28;20358;-66
2022/03/20 07:03:03;;;;;;;17.45;11.13;;;8.80;49.80;;;;;;5046998;28;20082;-67
2022/03/20 07:05:30;;;;;;;19.63;10.85;;;9.00;49.60;;;;;;5051711;28;20312;-66
2022/03/20 07:07:56;;;;;;;16.75;11.38;;;9.10;49.30;;;;;;5047894;28;20029;-67
2022/03/20 07:10:23;;;;;;;18.45;12.43;;;9.00;49.10;;;;;;5052733;28;20033;-67
2022/03/20 07:13:48;;;;;;;18.48;11.63;;;9.00;49.00;;;;;;5049982;28;20064;-67
2022/03/20 07:15:43;;;;;;;18.27;11.30;;;8.90;48.90;;;;;;5053128;28;20346;-67
2022/03/20 07:18:13;;;;;;;17.23;11.68;;;9.00;48.90;;;;;;5052140;28;20033;-66
2022/03/20 07:20:39;;;;;;;18.38;11.27;;;9.10;48.80;;;;;;5052932;28;20029;-66
2022/03/20 07:23:11;;;;;;;17.42;11.90;;;9.20;48.50;;;;;;5028635;28;20358;-64
2022/03/20 07:31:07;;;;;;;20.45;11.25;;;9.40;47.80;;;;;;5044361;28;20123;-65
2022/03/20 07:33:33;;;;;;;16.77;11.27;;;9.40;47.60;;;;;;5042095;28;20096;-64
2022/03/20 07:35:59;;;;;;;16.23;10.73;;;9.50;47.50;;;;;;5052845;28;20037;-67
2022/03/20 07:38:26;;;;;;;20.08;11.38;;;9.60;47.30;;;;;;5050873;28;20402;-67
2022/03/20 07:40:52;;;;;;;18.10;11.48;;;9.70;47.20;;;;;;5054018;28;20053;-66
2022/03/20 07:43:18;;;;;;;18.30;11.05;;;9.70;47.00;;;;;;5044061;28;20091;-66
2022/03/20 07:45:44;;;;;;;18.00;11.35;;;9.70;46.70;;;;;;5053276;28;20103;-66
2022/03/20 07:48:10;;;;;;;20.40;11.85;;;9.80;46.60;;;;;;5049216;28;20025;-65
2022/03/20 07:50:35;;;;;;;17.63;11.50;;;9.90;46.40;;;;;;5037318;28;20132;-67
2022/03/20 07:53:01;;;;;;;17.17;11.13;;;9.90;46.30;;;;;;5048091;28;20445;-67
2022/03/20 07:55:30;;;;;;;21.17;12.52;;;10.00;46.20;;;;;;5055127;28;20021;-67
2022/03/20 07:57:57;;;;;;;17.77;11.32;;;10.00;46.10;;;;;;5041448;28;20051;-67
2022/03/20 08:00:23;;;;;;;18.27;11.35;;;10.10;45.90;;;;;;5019938;28;20450;-67
2022/03/20 08:02:51;;;;;;;19.33;11.23;;;10.20;45.60;;;;;;5042475;28;20105;-67
2022/03/20 08:05:17;;;;;;;19.98;12.20;;;10.10;45.50;;;;;;5022606;28;20369;-67
2022/03/20 08:07:44;;;;;;;21.88;12.40;;;9.90;45.50;;;;;;5037171;28;20095;-67
2022/03/20 08:10:12;;;;;;;18.63;12.20;;;9.80;45.60;;;;;;5036161;28;20109;-67
2022/03/20 08:12:38;;;;;;;19.27;12.00;;;9.60;45.70;;;;;;5045290;28;20053;-67
2022/03/20 08:15:05;;;;;;;18.17;11.57;;;9.50;45.80;;;;;;5039389;28;20029;-67
2022/03/20 08:17:31;;;;;;;21.13;13.57;;;9.50;45.80;;;;;;5036884;28;20045;-67
2022/03/20 08:19:57;;;;;;;19.85;12.30;;;9.40;45.80;;;;;;5036440;28;20029;-67
2022/03/20 08:22:27;;;;;;;17.80;12.07;;;9.40;45.70;;;;;;5036174;28;20029;-67
2022/03/20 08:24:52;;;;;;;16.80;11.43;;;9.40;45.60;;;;;;5036633;28;20025;-67
2022/03/20 08:27:20;;;;;;;18.20;11.85;;;9.40;45.60;;;;;;5036262;28;20025;-67
2022/03/20 08:29:46;;;;;;;19.73;12.80;;;9.40;45.50;;;;;;5036409;28;20344;-69
2022/03/20 08:32:12;;;;;;;20.75;11.68;;;9.40;45.40;;;;;;5035401;28;20044;-67
2022/03/20 08:34:37;;;;;;;23.70;12.43;;;9.30;45.20;;;;;;5026401;28;20343;-67
2022/03/20 08:37:03;;;;;;;20.90;13.32;;;9.30;45.20;;;;;;5044604;28;20048;-69
2022/03/20 08:39:29;;;;;;;20.17;12.57;;;9.40;45.10;;;;;;5034913;28;20033;-69
2022/03/20 08:41:54;;;;;;;19.15;11.77;;;9.60;45.00;;;;;;5038507;28;20095;-66
2022/03/20 08:44:20;;;;;;;19.20;11.43;;;9.90;44.60;;;;;;5038604;28;20094;-69
2022/03/20 08:46:45;;;;;;;20.10;11.98;;;10.00;44.20;;;;;;5037479;28;20053;-69
2022/03/20 08:49:11;;;;;;;18.60;12.07;;;10.10;44.00;;;;;;5043619;28;20037;-69
2022/03/20 08:51:42;;;;;;;17.45;11.40;;;10.10;43.90;;;;;;5037461;28;20034;-70
2022/03/20 08:54:09;;;;;;;20.20;12.15;;;10.10;43.70;;;;;;5037496;28;20022;-69
2022/03/20 08:56:34;;;;;;;21.30;12.98;;;10.00;43.70;;;;;;5045755;28;20025;-70
2022/03/20 08:59:00;;;;;;;20.73;12.80;;;10.00;43.70;;;;;;5043843;28;20029;-67
2022/03/20 09:01:25;;;;;;;19.95;13.02;;;10.00;43.60;;;;;;5054574;28;20025;-66
2022/03/20 09:03:52;;;;;;;19.10;12.40;;;10.00;43.60;;;;;;5049517;28;20104;-67
2022/03/20 09:06:21;;;;;;;21.08;13.45;;;10.00;43.60;;;;;;5036720;28;20033;-67
2022/03/20 09:08:48;;;;;;;20.17;13.32;;;9.90;43.50;;;;;;5037019;28;20022;-67
2022/03/20 09:11:14;;;;;;;21.35;13.18;;;9.90;43.40;;;;;;5036768;28;20116;-70
2022/03/20 09:13:39;;;;;;;21.85;13.57;;;9.90;43.50;;;;;;5036941;28;20064;-70
2022/03/20 09:19:00;;;;;;;17.75;12.25;;;9.90;43.30;;;;;;5031852;28;20052;-69
2022/03/20 09:21:33;;;;;;;20.05;13.70;;;9.90;43.30;;;;;;5057137;28;20525;-67
2022/03/20 09:23:59;;;;;;;19.80;13.55;;;10.00;43.20;;;;;;5054165;28;20114;-67
2022/03/20 09:26:24;;;;;;;22.58;13.68;;;10.00;43.00;;;;;;5036942;28;20029;-67
2022/03/20 09:28:51;;;;;;;22.42;14.07;;;10.10;42.90;;;;;;5042367;28;20031;-67
2022/03/20 09:31:16;;;;;;;20.58;13.07;;;10.10;42.70;;;;;;5052543;28;20377;-67
2022/03/20 09:33:43;;;;;;;22.25;14.52;;;10.20;42.70;;;;;;5037797;28;20029;-67
2022/03/20 09:36:10;;;;;;;18.88;13.95;;;10.10;42.60;;;;;;5035370;28;20409;-67
2022/03/20 09:38:36;;;;;;;21.02;13.55;;;10.10;42.60;;;;;;5042028;28;20425;-67
2022/03/20 09:41:07;;;;;;;20.92;14.20;;;10.10;42.60;;;;;;5036397;28;20091;-67
2022/03/20 09:43:34;;;;;;;20.40;13.30;;;10.10;42.50;;;;;;5036497;28;20029;-67
2022/03/20 09:46:00;;;;;;;20.40;12.95;;;10.30;42.40;;;;;;5039429;28;20040;-67
2022/03/20 09:48:27;;;;;;;20.88;13.45;;;10.70;42.00;;;;;;5043181;28;20133;-67
2022/03/20 09:50:52;;;;;;;21.05;14.48;;;11.10;41.50;;;;;;5044987;28;20025;-68
2022/03/20 09:53:19;;;;;;;18.63;12.38;;;11.30;41.10;;;;;;5033669;28;20036;-67
2022/03/20 09:55:46;;;;;;;18.50;12.50;;;11.50;40.80;;;;;;5036184;28;20108;-67
2022/03/20 09:58:13;;;;;;;21.67;13.98;;;11.80;40.50;;;;;;5040123;28;20120;-67
2022/03/20 10:00:39;;;;;;;22.83;13.68;;;12.20;40.10;;;;;;5034101;28;20025;-67
2022/03/20 10:03:22;;;;;;;20.63;13.43;;;12.30;39.70;;;;;;5041298;28;20025;-67
2022/03/20 10:06:16;;;;;;;21.70;12.18;;;12.60;40.00;;;;;;5036199;28;20147;-67
2022/03/20 10:09:12;;;;;;;20.20;12.93;;;12.70;39.40;;;;;;5049486;28;20116;-67
2022/03/20 10:11:51;;;;;;;20.02;12.68;;;12.80;39.20;;;;;;5046555;28;20102;-67
2022/03/20 10:14:22;;;;;;;20.75;12.88;;;13.00;39.10;;;;;;5045699;28;20040;-67
2022/03/20 10:17:14;;;;;;;21.70;13.40;;;13.20;39.00;;;;;;5051459;28;20028;-67
2022/03/20 10:19:40;;;;;;;20.77;13.07;;;13.40;38.60;;;;;;5046878;28;20028;-67
2022/03/20 10:22:07;;;;;;;19.83;14.20;;;13.50;38.60;;;;;;5042727;28;20053;-67
2022/03/20 10:24:36;;;;;;;21.00;14.38;;;13.60;38.40;;;;;;5036531;28;20029;-67
2022/03/20 10:27:01;;;;;;;21.80;14.82;;;13.80;38.20;;;;;;5052221;28;20499;-67
2022/03/20 10:29:29;;;;;;;21.98;14.52;;;13.80;38.00;;;;;;5021484;28;20029;-67
2022/03/20 10:31:56;;;;;;;24.13;15.52;;;13.90;37.90;;;;;;5045577;28;20041;-68
2022/03/20 10:34:25;;;;;;;23.42;14.73;;;13.90;37.70;;;;;;5042854;28;20025;-67
2022/03/20 10:36:51;;;;;;;22.50;15.05;;;13.90;37.70;;;;;;5035459;28;20366;-67
2022/03/20 10:39:19;;;;;;;22.90;14.43;;;13.70;37.60;;;;;;5042932;28;20053;-68
2022/03/20 10:41:56;;;;;;;20.50;13.88;;;13.60;37.80;;;;;;5045845;28;20033;-68
2022/03/20 10:44:31;;;;;;;22.65;15.57;;;13.40;37.90;;;;;;5034460;28;20044;-67
2022/03/20 10:46:58;;;;;;;21.55;14.43;;;13.20;38.00;;;;;;5035825;28;20112;-67
2022/03/20 10:49:26;;;;;;;20.98;14.35;;;13.10;38.30;;;;;;5038576;28;20111;-62
2022/03/20 10:52:07;;;;;;;19.50;14.25;;;13.00;38.50;;;;;;5034306;28;20454;-62
2022/03/20 10:54:39;;;;;;;21.60;14.30;;;12.80;38.60;;;;;;5036440;28;20022;-62
2022/03/20 10:57:06;;;;;;;22.45;14.95;;;12.60;38.80;;;;;;5040724;28;20152;-62
2022/03/20 10:59:32;;;;;;;23.27;14.98;;;12.50;39.00;;;;;;5042124;28;20045;-63
2022/03/20 11:01:58;;;;;;;23.70;15.70;;;12.30;39.10;;;;;;5033873;28;20060;-62
2022/03/20 11:04:24;;;;;;;24.20;15.20;;;12.10;39.20;;;;;;5040559;28;20430;-63
2022/03/20 11:06:54;;;;;;;24.35;16.35;;;11.90;39.30;;;;;;5041937;28;20037;-63
2022/03/20 11:09:20;;;;;;;24.33;15.75;;;11.80;39.40;;;;;;5034154;28;20104;-63
2022/03/20 11:11:58;;;;;;;23.35;15.63;;;11.80;39.50;;;;;;5041907;28;20029;-63
2022/03/20 11:14:26;;;;;;;23.83;15.55;;;11.70;39.50;;;;;;5041661;28;20606;-63
2022/03/20 11:17:00;;;;;;;22.33;14.32;;;11.60;39.60;;;;;;5066306;28;20029;-62
2022/03/20 11:19:29;;;;;;;23.58;15.02;;;11.60;39.70;;;;;;5074437;28;20036;-63
2022/03/20 11:22:00;;;;;;;21.02;14.80;;;11.50;39.80;;;;;;5073162;28;20086;-62
2022/03/20 11:24:27;;;;;;;20.48;14.43;;;11.50;39.80;;;;;;5041490;28;20034;-62
2022/03/20 11:26:57;;;;;;;23.67;15.60;;;11.50;39.90;;;;;;5038675;28;20091;-62
2022/03/20 11:29:25;;;;;;;23.10;16.27;;;11.50;39.90;;;;;;5043246;28;20104;-65
2022/03/20 11:31:51;;;;;;;24.63;17.00;;;11.50;40.00;;;;;;5040559;28;20049;-65
2022/03/20 11:34:18;;;;;;;24.48;15.77;;;11.40;40.00;;;;;;5036810;28;20026;-64
2022/03/20 11:37:02;;;;;;;24.90;15.88;;;11.40;40.10;;;;;;5052990;28;20052;-65
2022/03/20 11:39:28;;;;;;;23.42;15.77;;;11.40;40.10;;;;;;5050269;28;20044;-64
2022/03/20 11:42:23;;;;;;;27.77;17.13;;;11.40;40.30;;;;;;5040340;28;20397;-64
2022/03/20 11:44:59;;;;;;;21.08;15.13;;;11.40;40.30;;;;;;5049351;28;20350;-65
2022/03/20 11:47:30;;;;;;;23.85;16.25;;;11.40;40.60;;;;;;5040614;28;20026;-64
2022/03/20 11:50:09;;;;;;;28.23;17.42;;;11.30;40.70;;;;;;5040673;28;20061;-65
2022/03/20 11:52:55;;;;;;;25.10;16.75;;;11.30;40.90;;;;;;5044074;28;20092;-62
2022/03/20 11:55:25;;;;;;;24.15;16.30;;;11.30;41.70;;;;;;5049697;28;20025;-62
2022/03/20 11:57:52;;;;;;;25.75;16.13;;;11.30;41.20;;;;;;5038926;28;20037;-62
2022/03/20 12:00:22;;;;;;;24.27;16.58;;;11.30;41.30;;;;;;5039978;28;20037;-62
2022/03/20 12:02:53;;;;;;;24.88;16.05;;;11.30;41.20;;;;;;5038369;28;20104;-61
2022/03/20 12:05:31;;;;;;;24.02;15.98;;;11.30;41.30;;;;;;5049815;28;20036;-62
2022/03/20 12:08:05;;;;;;;22.50;15.75;;;11.40;41.30;;;;;;5049714;28;20040;-62
2022/03/20 12:10:59;;;;;;;26.00;16.23;;;11.40;41.20;;;;;;5048839;28;20039;-62
2022/03/20 12:13:42;;;;;;;26.90;17.42;;;11.50;41.20;;;;;;5048788;28;20029;-63
2022/03/20 12:16:09;;;;;;;23.35;14.60;;;11.50;41.20;;;;;;5037788;28;20065;-62
2022/03/20 12:19:11;;;;;;;24.15;16.88;;;11.50;41.20;;;;;;5035596;28;20108;-63
2022/03/20 12:21:54;;;;;;;22.75;15.23;;;11.50;41.20;;;;;;5025184;28;20484;-63
2022/03/20 12:24:34;;;;;;;24.98;16.20;;;11.50;41.20;;;;;;5019397;28;20046;-62
2022/03/20 12:27:25;;;;;;;23.13;15.07;;;11.50;41.30;;;;;;5007403;28;20033;-62
2022/03/20 12:29:52;;;;;;;23.88;16.15;;;11.50;41.20;;;;;;5016078;28;20038;-63
2022/03/20 12:32:19;;;;;;;24.38;16.27;;;11.50;41.20;;;;;;5014662;28;20499;-62
2022/03/20 12:35:06;;;;;;;23.52;16.55;;;11.50;41.20;;;;;;5018625;28;20075;-61
2022/03/20 12:37:34;;;;;;;21.65;14.75;;;11.50;41.30;;;;;;5031929;28;20039;-63
2022/03/20 12:40:02;;;;;;;22.52;15.27;;;11.40;41.20;;;;;;5030223;28;20042;-64
2022/03/20 12:42:28;;;;;;;23.73;16.80;;;11.50;41.30;;;;;;5020225;28;20107;-65
2022/03/20 12:44:54;;;;;;;23.77;15.27;;;11.50;41.30;;;;;;4995023;28;20045;-62
2022/03/20 12:47:24;;;;;;;22.15;15.05;;;11.50;41.20;;;;;;5008081;28;20484;-62
2022/03/20 12:49:59;;;;;;;23.70;16.17;;;11.60;41.20;;;;;;5004740;28;20124;-62
2022/03/20 12:52:25;;;;;;;24.63;15.18;;;11.60;41.20;;;;;;5021579;28;20036;-62
2022/03/20 12:54:56;;;;;;;27.17;17.45;;;11.60;41.30;;;;;;5026009;28;20072;-65
2022/03/20 12:57:43;;;;;;;23.48;15.40;;;11.70;41.30;;;;;;5048741;28;20410;-65
2022/03/20 13:00:11;;;;;;;24.10;16.13;;;11.70;41.30;;;;;;5049240;28;20579;-65
2022/03/20 13:02:57;;;;;;;28.30;17.05;;;11.70;41.40;;;;;;5043727;28;20036;-64
2022/03/20 13:05:27;;;;;;;24.90;16.38;;;11.70;41.40;;;;;;5049965;28;20112;-65
2022/03/20 13:07:53;;;;;;;24.60;16.13;;;11.70;41.50;;;;;;5044117;28;20022;-65
2022/03/20 13:10:24;;;;;;;26.85;17.15;;;11.60;41.50;;;;;;5056790;28;20041;-64
2022/03/20 13:13:02;;;;;;;27.65;17.33;;;11.60;41.60;;;;;;5051818;28;20049;-64
2022/03/20 13:15:33;;;;;;;24.77;16.85;;;11.60;41.70;;;;;;5045342;28;20366;-62
2022/03/20 13:18:00;;;;;;;24.40;15.98;;;11.50;41.80;;;;;;5021801;28;20389;-62
2022/03/20 13:20:28;;;;;;;23.98;15.65;;;11.50;41.90;;;;;;5038713;28;20056;-62